createdAt,value
2023-02-03T00:03:21.632Z,6.30
2023-02-03T00:07:24.829Z,6.40
2023-02-03T00:11:28.167Z,6.30
2023-02-03T00:15:32.313Z,6.30
2023-02-03T00:19:35.135Z,6.20
2023-02-03T00:23:37.959Z,6.30
2023-02-03T00:27:40.762Z,6.30
2023-02-03T00:31:45.108Z,6.50
2023-02-03T00:35:48.263Z,6.40
2023-02-03T00:39:51.287Z,6.20
2023-02-03T00:43:55.809Z,6.40
2023-02-03T00:47:59.990Z,6.40
2023-02-03T00:52:02.781Z,6.30
2023-02-03T00:56:12.386Z,6.40
2023-02-03T01:00:16.019Z,6.40
2023-02-03T01:04:20.199Z,6.50
2023-02-03T01:08:23.706Z,6.30
2023-02-03T01:12:26.659Z,6.20
2023-02-03T01:16:31.551Z,6.40
2023-02-03T01:20:36.333Z,6.30
2023-02-03T01:24:39.331Z,6.40
2023-02-03T01:28:42.921Z,6.40
2023-02-03T01:32:47.558Z,6.10
2023-02-03T01:36:51.665Z,6.40
2023-02-03T01:40:54.436Z,6.40
2023-02-03T01:44:58.433Z,6.50
2023-02-03T01:49:08.098Z,6.50
2023-02-03T01:53:12.968Z,6.20
2023-02-03T01:57:20.969Z,6.30
2023-02-03T02:01:23.865Z,6.20
2023-02-03T02:05:30.901Z,6.20
2023-02-03T02:09:35.659Z,6.20
2023-02-03T02:13:39.941Z,6.30
2023-02-03T02:18:08.236Z,6.30
2023-02-03T02:22:20.271Z,6.20
2023-02-03T02:26:50.264Z,6.10
2023-02-03T02:31:29.182Z,6.30
2023-02-03T02:35:45.880Z,6.10
2023-02-03T02:39:55.870Z,6.30
2023-02-03T02:44:02.830Z,6.10
2023-02-03T02:48:10.594Z,6.20
2023-02-03T02:52:17.680Z,6.30
2023-02-03T02:56:20.887Z,6.40
2023-02-03T03:00:25.365Z,6.40
2023-02-03T03:04:31.089Z,6.50
2023-02-03T03:08:41.083Z,6.40
2023-02-03T03:12:48.132Z,6.10
2023-02-03T03:16:58.229Z,6.10
2023-02-03T03:21:06.305Z,6.20
2023-02-03T03:25:15.943Z,6.00
2023-02-03T03:29:22.533Z,6.30
2023-02-03T03:33:25.396Z,6.00
2023-02-03T03:37:36.701Z,6.00
2023-02-03T03:41:45.124Z,6.00
2023-02-03T03:45:55.814Z,6.10
2023-02-03T03:50:01.007Z,6.30
2023-02-03T03:54:08.586Z,6.50
2023-02-03T03:58:16.620Z,6.10
2023-02-03T04:02:21.461Z,6.00
2023-02-03T04:06:24.822Z,6.30
2023-02-03T04:10:32.646Z,6.00
2023-02-03T04:14:39.109Z,6.10
2023-02-03T04:18:42.002Z,6.10
2023-02-03T04:22:44.826Z,6.00
2023-02-03T04:26:47.688Z,6.10
2023-02-03T04:30:51.897Z,5.80
2023-02-03T04:34:54.735Z,6.00
2023-02-03T04:38:57.620Z,5.80
2023-02-03T04:43:00.505Z,6.20
2023-02-03T04:47:04.846Z,6.10
2023-02-03T04:51:09.295Z,6.20
2023-02-03T04:55:12.077Z,6.00
2023-02-03T04:59:14.837Z,5.90
2023-02-03T05:03:18.994Z,6.00
2023-02-03T05:07:21.805Z,6.00
2023-02-03T05:11:24.601Z,6.00
2023-02-03T05:15:27.439Z,5.80
2023-02-03T05:19:31.713Z,5.90
2023-02-03T05:23:36.668Z,5.80
2023-02-03T05:27:40.560Z,5.90
2023-02-03T05:31:43.417Z,5.80
2023-02-03T05:35:47.646Z,5.90
2023-02-03T05:39:50.424Z,5.90
2023-02-03T05:43:52.831Z,5.90
2023-02-03T05:47:55.668Z,5.90
2023-02-03T05:51:59.850Z,5.80
2023-02-03T05:56:02.740Z,6.00
2023-02-03T06:00:07.466Z,5.90
2023-02-03T06:04:14.486Z,6.00
2023-02-03T06:08:18.732Z,6.10
2023-02-03T06:12:22.046Z,6.10
2023-02-03T06:16:25.059Z,5.90
2023-02-03T06:20:28.405Z,6.20
2023-02-03T06:24:32.840Z,6.10
2023-02-03T06:28:35.687Z,6.30
2023-02-03T06:32:38.694Z,6.30
2023-02-03T06:36:41.540Z,6.30
2023-02-03T06:40:47.757Z,6.20
2023-02-03T06:44:50.343Z,6.00
2023-02-03T06:48:53.069Z,5.80
2023-02-03T06:52:55.881Z,6.00
2023-02-03T06:57:00.030Z,6.20
2023-02-03T07:01:02.903Z,6.00
2023-02-03T07:05:06.674Z,5.70
2023-02-03T07:09:09.567Z,6.10
2023-02-03T07:13:13.725Z,6.00
2023-02-03T07:17:16.553Z,6.00
2023-02-03T07:21:19.450Z,6.00
2023-02-03T07:25:22.915Z,6.20
2023-02-03T07:29:27.171Z,6.20
2023-02-03T07:33:30.050Z,6.30
2023-02-03T07:37:32.928Z,6.30
2023-02-03T07:41:35.775Z,6.20
2023-02-03T07:45:40.009Z,6.30
2023-02-03T07:49:42.945Z,6.40
2023-02-03T07:53:46.159Z,6.40
2023-02-03T07:57:49.030Z,6.40
2023-02-03T08:01:56.157Z,6.30
2023-02-03T08:05:59.096Z,6.50
2023-02-03T08:10:01.981Z,6.40
2023-02-03T08:14:05.000Z,6.60
2023-02-03T08:18:09.729Z,6.70
2023-02-03T08:22:15.960Z,6.80
2023-02-03T08:26:18.626Z,6.60
2023-02-03T08:30:21.501Z,6.50
2023-02-03T08:34:25.624Z,6.80
2023-02-03T08:38:28.462Z,6.80
2023-02-03T08:42:31.276Z,6.80
2023-02-03T08:46:35.698Z,6.80
2023-02-03T08:50:42.860Z,6.80
2023-02-03T08:54:45.929Z,6.80
2023-02-03T08:58:48.722Z,6.80
2023-02-03T09:02:51.536Z,7.00
2023-02-03T09:06:56.083Z,6.80
2023-02-03T09:10:58.896Z,6.90
2023-02-03T09:15:01.737Z,7.00
2023-02-03T09:19:04.655Z,7.00
2023-02-03T09:23:08.845Z,7.00
2023-02-03T09:27:11.643Z,7.10
2023-02-03T09:31:17.792Z,7.10
2023-02-03T09:35:20.731Z,7.10
2023-02-03T09:39:24.935Z,7.30
2023-02-03T09:43:35.377Z,7.30
2023-02-03T09:47:41.672Z,7.40
2023-02-03T09:51:46.234Z,7.50
2023-02-03T09:55:51.322Z,7.60
2023-02-03T09:59:55.665Z,7.70
2023-02-03T10:04:05.449Z,7.90
2023-02-03T10:08:15.382Z,8.00
2023-02-03T10:12:38.276Z,7.90
2023-02-03T10:16:56.210Z,7.70
2023-02-03T10:21:03.576Z,7.80
2023-02-03T10:25:13.336Z,7.70
2023-02-03T10:29:21.570Z,7.80
2023-02-03T10:33:27.101Z,8.10
2023-02-03T10:37:34.736Z,8.00
2023-02-03T10:41:37.598Z,8.10
2023-02-03T10:45:41.917Z,8.00
2023-02-03T10:49:45.893Z,8.10
2023-02-03T10:53:52.827Z,8.10
2023-02-03T10:57:56.252Z,8.00
2023-02-03T11:02:00.593Z,8.20
2023-02-03T11:06:09.398Z,8.20
2023-02-03T11:10:36.078Z,8.10
2023-02-03T11:14:40.316Z,8.20
2023-02-03T11:18:54.831Z,8.20
2023-02-03T11:22:57.712Z,8.20
2023-02-03T11:27:04.705Z,8.40
2023-02-03T11:31:17.943Z,8.40
2023-02-03T11:35:24.329Z,8.60
2023-02-03T11:39:28.528Z,8.80
2023-02-03T11:43:31.742Z,8.90
2023-02-03T11:47:34.793Z,9.10
2023-02-03T11:51:47.091Z,9.30
2023-02-03T11:56:03.000Z,9.20
2023-02-03T12:00:18.917Z,9.30
2023-02-03T12:04:43.874Z,9.20
2023-02-03T12:09:09.424Z,9.20
2023-02-03T12:13:26.991Z,9.00
2023-02-03T12:17:57.824Z,8.80
2023-02-03T12:22:09.857Z,8.60
2023-02-03T12:26:21.166Z,8.70
2023-02-03T12:30:29.153Z,8.70
2023-02-03T12:34:37.425Z,8.60
2023-02-03T12:38:44.896Z,8.30
2023-02-03T12:42:54.560Z,8.40
2023-02-03T12:47:03.577Z,8.50
2023-02-03T12:51:14.708Z,8.40
2023-02-03T12:55:24.651Z,8.40
2023-02-03T12:59:33.539Z,8.70
2023-02-03T13:03:43.791Z,8.80
2023-02-03T13:07:51.791Z,8.50
2023-02-03T13:12:01.360Z,8.40
2023-02-03T13:16:10.155Z,8.30
2023-02-03T13:20:19.538Z,8.40
2023-02-03T13:24:26.471Z,8.30
2023-02-03T13:28:43.749Z,8.60
2023-02-03T13:33:06.629Z,8.50
2023-02-03T13:37:24.873Z,8.30
2023-02-03T13:41:36.683Z,8.40
2023-02-03T13:45:43.148Z,8.40
2023-02-03T13:49:53.708Z,8.30
2023-02-03T13:54:02.895Z,8.20
2023-02-03T13:58:08.113Z,8.30
2023-02-03T14:02:46.112Z,8.20
2023-02-03T14:07:01.026Z,8.40
2023-02-03T14:11:45.520Z,8.30
2023-02-03T14:16:15.284Z,8.40
2023-02-03T14:20:47.847Z,8.10
2023-02-03T14:24:54.933Z,8.20
2023-02-03T14:28:58.208Z,8.20
2023-02-03T14:33:03.154Z,8.00
2023-02-03T14:37:19.196Z,8.20
2023-02-03T14:41:30.985Z,8.10
2023-02-03T14:45:51.095Z,8.20
2023-02-03T14:50:11.446Z,8.40
2023-02-03T14:54:36.968Z,8.20
2023-02-03T14:58:46.316Z,8.00
2023-02-03T15:03:25.409Z,8.10
2023-02-03T15:07:41.723Z,8.10
2023-02-03T15:11:46.769Z,8.30
2023-02-03T15:15:53.548Z,8.00
2023-02-03T15:19:56.425Z,8.10
2023-02-03T15:24:00.109Z,8.00
2023-02-03T15:28:16.278Z,8.10
2023-02-03T15:32:28.621Z,8.10
2023-02-03T15:36:39.533Z,7.70
2023-02-03T15:40:46.023Z,7.80
2023-02-03T15:44:54.578Z,8.00
2023-02-03T15:49:03.149Z,7.90
2023-02-03T15:53:11.437Z,7.90
2023-02-03T15:57:18.795Z,8.10
2023-02-03T16:01:26.553Z,7.90
2023-02-03T16:05:33.795Z,7.70
2023-02-03T16:09:42.352Z,7.80
2023-02-03T16:13:45.887Z,7.70
2023-02-03T16:17:57.033Z,7.90
2023-02-03T16:22:01.296Z,7.80
2023-02-03T16:26:06.378Z,7.90
2023-02-03T16:30:43.309Z,7.90
2023-02-03T16:35:03.959Z,7.70
2023-02-03T16:39:30.464Z,7.90
2023-02-03T16:43:50.607Z,8.00
2023-02-03T16:48:10.694Z,7.80
2023-02-03T16:52:13.519Z,7.70
2023-02-03T16:56:19.126Z,7.80
2023-02-03T17:00:23.031Z,7.90
2023-02-03T17:04:25.816Z,7.70
2023-02-03T17:08:28.631Z,7.70
2023-02-03T17:12:33.572Z,7.80
2023-02-03T17:16:36.411Z,7.90
2023-02-03T17:20:40.047Z,7.80
2023-02-03T17:24:42.900Z,7.60
2023-02-03T17:28:47.065Z,7.70
2023-02-03T17:32:49.864Z,7.60
2023-02-03T17:36:55.453Z,7.70
2023-02-03T17:54:05.975Z,7.60
2023-02-03T17:58:08.798Z,7.60
2023-02-03T18:02:12.966Z,7.60
2023-02-03T18:06:17.276Z,7.90
2023-02-03T18:10:20.240Z,7.90
2023-02-03T18:14:23.018Z,7.50
2023-02-03T18:18:28.022Z,7.50
2023-02-03T18:22:30.823Z,7.70
2023-02-03T18:26:36.811Z,7.40
2023-02-03T18:30:39.758Z,8.10
2023-02-03T18:34:44.317Z,7.70
2023-02-03T18:38:48.176Z,7.60
2023-02-03T18:42:51.008Z,7.50
2023-02-03T18:46:54.116Z,7.60
2023-02-03T18:50:58.252Z,7.50
2023-02-03T18:55:01.051Z,7.60
2023-02-03T18:59:08.632Z,7.50
2023-02-03T19:03:11.390Z,7.60
2023-02-03T19:07:15.598Z,7.60
2023-02-03T19:11:18.892Z,7.40
2023-02-03T19:15:22.103Z,7.40
2023-02-03T19:19:24.914Z,7.50
2023-02-03T19:23:29.110Z,7.70
2023-02-03T19:27:31.888Z,7.40
2023-02-03T19:31:35.646Z,7.40
2023-02-03T19:35:38.765Z,7.40
2023-02-03T19:39:44.920Z,7.50
2023-02-03T19:43:48.484Z,7.20
2023-02-03T19:47:51.244Z,7.20
2023-02-03T19:51:54.033Z,7.40
2023-02-03T19:55:58.271Z,7.20
2023-02-03T20:00:01.233Z,7.20
2023-02-03T20:04:04.527Z,7.20
2023-02-03T20:08:07.496Z,7.50
2023-02-03T20:12:12.491Z,7.30
2023-02-03T20:16:16.056Z,7.20
2023-02-03T20:20:20.750Z,7.20
2023-02-03T20:24:23.916Z,7.60
2023-02-03T20:28:29.120Z,7.30
2023-02-03T20:32:31.979Z,7.00
2023-02-03T20:36:34.806Z,7.20
2023-02-03T20:40:37.608Z,7.20
2023-02-03T20:44:42.485Z,7.10
2023-02-03T20:48:45.901Z,7.20
2023-02-03T20:52:49.907Z,7.00
2023-02-03T20:56:52.732Z,7.40
2023-02-03T21:00:58.212Z,7.40
2023-02-03T21:05:02.624Z,7.20
2023-02-03T21:09:14.512Z,7.40
2023-02-03T21:13:20.643Z,7.40
2023-02-03T21:17:27.112Z,7.00
2023-02-03T21:21:35.343Z,7.40
2023-02-03T21:25:38.145Z,7.00
2023-02-03T21:29:41.585Z,7.30
2023-02-03T21:33:45.913Z,7.20
2023-02-03T21:37:49.024Z,7.30
2023-02-03T21:41:52.155Z,7.40
2023-02-03T21:45:55.028Z,7.40
2023-02-03T21:50:01.855Z,7.20
2023-02-03T21:54:24.272Z,7.10
2023-02-03T21:58:30.379Z,7.20
2023-02-03T22:02:56.079Z,7.00
2023-02-03T22:07:00.247Z,7.00
2023-02-03T22:11:03.048Z,6.90
2023-02-03T22:15:06.387Z,7.00
2023-02-03T22:19:09.834Z,7.10
2023-02-03T22:23:14.039Z,6.90
2023-02-03T22:27:18.256Z,7.00
2023-02-03T22:31:21.547Z,7.40
2023-02-03T22:35:24.621Z,7.10
2023-02-03T22:39:28.759Z,7.10
2023-02-03T22:43:32.140Z,7.10
2023-02-03T22:47:34.898Z,7.10
2023-02-03T22:51:37.690Z,6.70
2023-02-03T22:55:42.948Z,6.80
2023-02-03T22:59:45.735Z,6.60
2023-02-03T23:03:48.465Z,6.70
2023-02-03T23:07:51.892Z,6.60
2023-02-03T23:11:56.037Z,6.60
2023-02-03T23:15:59.007Z,6.90
2023-02-03T23:20:01.851Z,6.60
2023-02-03T23:24:05.148Z,6.60
2023-02-03T23:28:09.337Z,6.90
2023-02-03T23:32:12.108Z,6.60
2023-02-03T23:36:14.826Z,6.50
2023-02-03T23:40:17.871Z,6.60
2023-02-03T23:44:22.276Z,6.60
2023-02-03T23:48:24.993Z,6.50
2023-02-03T23:52:27.972Z,6.70
2023-02-03T23:56:30.774Z,6.60
